sensor_id;sensor_type;location;lat;lon;timestamp;temperature;humidity
38726;DHT22;24474;48.906;8.808;2024-02-26T00:00:10;6.70;99.90
38726;DHT22;24474;48.906;8.808;2024-02-26T00:02:37;6.70;99.90
38726;DHT22;24474;48.906;8.808;2024-02-26T00:05:07;6.80;99.90
38726;DHT22;24474;48.906;8.808;2024-02-26T00:07:34;6.70;99.90
38726;DHT22;24474;48.906;8.808;2024-02-26T00:09:59;6.80;99.90
38726;DHT22;24474;48.906;8.808;2024-02-26T00:12:25;6.70;99.90
38726;DHT22;24474;48.906;8.808;2024-02-26T00:14:50;6.70;99.90
38726;DHT22;24474;48.906;8.808;2024-02-26T00:17:18;6.70;99.90
38726;DHT22;24474;48.906;8.808;2024-02-26T00:19:43;6.70;99.90
38726;DHT22;24474;48.906;8.808;2024-02-26T00:22:09;6.80;99.90
38726;DHT22;24474;48.906;8.808;2024-02-26T00:24:34;6.70;99.90
38726;DHT22;24474;48.906;8.808;2024-02-26T00:27:00;6.80;99.90
38726;DHT22;24474;48.906;8.808;2024-02-26T00:29:25;6.80;99.90
38726;DHT22;24474;48.906;8.808;2024-02-26T00:31:51;6.80;99.90
38726;DHT22;24474;48.906;8.808;2024-02-26T00:34:17;6.80;99.90
38726;DHT22;24474;48.906;8.808;2024-02-26T00:36:43;6.80;99.90
38726;DHT22;24474;48.906;8.808;2024-02-26T00:39:08;6.80;99.90
38726;DHT22;24474;48.906;8.808;2024-02-26T00:41:38;6.80;99.90
38726;DHT22;24474;48.906;8.808;2024-02-26T00:44:04;6.70;99.90
38726;DHT22;24474;48.906;8.808;2024-02-26T00:46:30;6.80;99.90
38726;DHT22;24474;48.906;8.808;2024-02-26T00:48:55;6.80;99.90
38726;DHT22;24474;48.906;8.808;2024-02-26T00:51:21;6.80;99.90
38726;DHT22;24474;48.906;8.808;2024-02-26T00:53:47;6.80;99.90
38726;DHT22;24474;48.906;8.808;2024-02-26T00:56:12;6.80;99.90
38726;DHT22;24474;48.906;8.808;2024-02-26T00:58:38;6.80;99.90
38726;DHT22;24474;48.906;8.808;2024-02-26T01:01:03;6.80;99.90
38726;DHT22;24474;48.906;8.808;2024-02-26T01:03:29;6.80;99.90
38726;DHT22;24474;48.906;8.808;2024-02-26T01:05:55;6.80;99.90
38726;DHT22;24474;48.906;8.808;2024-02-26T01:08:20;6.80;99.90
38726;DHT22;24474;48.906;8.808;2024-02-26T01:10:46;6.80;99.90
38726;DHT22;24474;48.906;8.808;2024-02-26T01:13:12;6.80;99.90
38726;DHT22;24474;48.906;8.808;2024-02-26T01:15:37;6.80;99.90
38726;DHT22;24474;48.906;8.808;2024-02-26T01:18:03;6.80;99.90
38726;DHT22;24474;48.906;8.808;2024-02-26T01:20:28;6.80;99.90
38726;DHT22;24474;48.906;8.808;2024-02-26T01:22:54;6.80;99.90
38726;DHT22;24474;48.906;8.808;2024-02-26T01:25:19;6.80;99.90
38726;DHT22;24474;48.906;8.808;2024-02-26T01:27:45;6.80;99.90
38726;DHT22;24474;48.906;8.808;2024-02-26T01:30:11;6.80;99.90
38726;DHT22;24474;48.906;8.808;2024-02-26T01:32:37;6.80;99.90
38726;DHT22;24474;48.906;8.808;2024-02-26T01:35:02;6.70;99.90
38726;DHT22;24474;48.906;8.808;2024-02-26T01:37:35;6.70;99.90
38726;DHT22;24474;48.906;8.808;2024-02-26T01:40:01;6.80;99.90
38726;DHT22;24474;48.906;8.808;2024-02-26T01:42:29;6.70;99.90
38726;DHT22;24474;48.906;8.808;2024-02-26T01:44:56;6.70;99.90
38726;DHT22;24474;48.906;8.808;2024-02-26T01:47:22;6.70;99.90
38726;DHT22;24474;48.906;8.808;2024-02-26T01:49:49;6.70;99.90
38726;DHT22;24474;48.906;8.808;2024-02-26T01:52:15;6.70;99.90
38726;DHT22;24474;48.906;8.808;2024-02-26T01:54:42;6.70;99.90
38726;DHT22;24474;48.906;8.808;2024-02-26T01:57:11;6.70;99.90
38726;DHT22;24474;48.906;8.808;2024-02-26T01:59:39;6.70;99.90
38726;DHT22;24474;48.906;8.808;2024-02-26T02:02:07;6.70;99.90
38726;DHT22;24474;48.906;8.808;2024-02-26T02:04:35;6.70;99.90
38726;DHT22;24474;48.906;8.808;2024-02-26T02:07:01;6.70;99.90
38726;DHT22;24474;48.906;8.808;2024-02-26T02:09:30;6.80;99.90
38726;DHT22;24474;48.906;8.808;2024-02-26T02:11:56;6.70;99.90
38726;DHT22;24474;48.906;8.808;2024-02-26T02:14:22;6.70;99.90
38726;DHT22;24474;48.906;8.808;2024-02-26T02:16:47;6.70;99.90
38726;DHT22;24474;48.906;8.808;2024-02-26T02:19:13;6.70;99.90
38726;DHT22;24474;48.906;8.808;2024-02-26T02:21:39;6.70;99.90
38726;DHT22;24474;48.906;8.808;2024-02-26T02:24:05;6.70;99.90
38726;DHT22;24474;48.906;8.808;2024-02-26T02:26:30;6.70;99.90
38726;DHT22;24474;48.906;8.808;2024-02-26T02:28:56;6.70;99.90
38726;DHT22;24474;48.906;8.808;2024-02-26T02:31:22;6.70;99.90
38726;DHT22;24474;48.906;8.808;2024-02-26T02:33:48;6.80;99.90
38726;DHT22;24474;48.906;8.808;2024-02-26T02:36:14;6.80;99.90
38726;DHT22;24474;48.906;8.808;2024-02-26T02:38:49;6.80;99.90
38726;DHT22;24474;48.906;8.808;2024-02-26T02:41:18;6.80;99.90
38726;DHT22;24474;48.906;8.808;2024-02-26T02:43:44;6.80;99.90
38726;DHT22;24474;48.906;8.808;2024-02-26T02:46:10;6.80;99.90
38726;DHT22;24474;48.906;8.808;2024-02-26T02:48:38;6.80;99.90
38726;DHT22;24474;48.906;8.808;2024-02-26T02:51:04;6.80;99.90
38726;DHT22;24474;48.906;8.808;2024-02-26T02:53:30;6.70;99.90
38726;DHT22;24474;48.906;8.808;2024-02-26T02:55:58;6.80;99.90
38726;DHT22;24474;48.906;8.808;2024-02-26T02:58:24;6.80;99.90
38726;DHT22;24474;48.906;8.808;2024-02-26T03:00:49;6.80;99.90
38726;DHT22;24474;48.906;8.808;2024-02-26T03:03:15;6.80;99.90
38726;DHT22;24474;48.906;8.808;2024-02-26T03:05:40;6.80;99.90
38726;DHT22;24474;48.906;8.808;2024-02-26T03:08:06;6.80;99.90
38726;DHT22;24474;48.906;8.808;2024-02-26T03:10:32;6.80;99.90
38726;DHT22;24474;48.906;8.808;2024-02-26T03:12:58;6.80;99.90
38726;DHT22;24474;48.906;8.808;2024-02-26T03:15:23;6.80;99.90
38726;DHT22;24474;48.906;8.808;2024-02-26T03:17:49;6.80;99.90
38726;DHT22;24474;48.906;8.808;2024-02-26T03:20:14;6.80;99.90
38726;DHT22;24474;48.906;8.808;2024-02-26T03:22:40;6.90;99.90
38726;DHT22;24474;48.906;8.808;2024-02-26T03:25:06;6.80;99.90
38726;DHT22;24474;48.906;8.808;2024-02-26T03:27:32;6.80;99.90
38726;DHT22;24474;48.906;8.808;2024-02-26T03:29:58;6.80;99.90
38726;DHT22;24474;48.906;8.808;2024-02-26T03:32:23;6.70;99.90
38726;DHT22;24474;48.906;8.808;2024-02-26T03:34:49;6.80;99.90
38726;DHT22;24474;48.906;8.808;2024-02-26T03:37:15;6.70;99.90
38726;DHT22;24474;48.906;8.808;2024-02-26T03:39:41;6.80;99.90
38726;DHT22;24474;48.906;8.808;2024-02-26T03:42:06;6.80;99.90
38726;DHT22;24474;48.906;8.808;2024-02-26T03:44:32;6.80;99.90
38726;DHT22;24474;48.906;8.808;2024-02-26T03:46:57;6.70;99.90
38726;DHT22;24474;48.906;8.808;2024-02-26T03:49:23;6.70;99.90
38726;DHT22;24474;48.906;8.808;2024-02-26T03:51:49;6.80;99.90
38726;DHT22;24474;48.906;8.808;2024-02-26T03:54:14;6.80;99.90
38726;DHT22;24474;48.906;8.808;2024-02-26T03:56:40;6.80;99.90
38726;DHT22;24474;48.906;8.808;2024-02-26T03:59:05;6.80;99.90
38726;DHT22;24474;48.906;8.808;2024-02-26T04:01:31;6.80;99.90
38726;DHT22;24474;48.906;8.808;2024-02-26T04:03:57;6.80;99.90
38726;DHT22;24474;48.906;8.808;2024-02-26T04:06:22;6.80;99.90
38726;DHT22;24474;48.906;8.808;2024-02-26T04:08:48;6.80;99.90
38726;DHT22;24474;48.906;8.808;2024-02-26T04:11:14;6.80;99.90
38726;DHT22;24474;48.906;8.808;2024-02-26T04:13:43;6.80;99.90
38726;DHT22;24474;48.906;8.808;2024-02-26T04:16:11;6.80;99.90
38726;DHT22;24474;48.906;8.808;2024-02-26T04:18:37;6.80;99.90
38726;DHT22;24474;48.906;8.808;2024-02-26T04:21:04;6.80;99.90
38726;DHT22;24474;48.906;8.808;2024-02-26T04:23:30;6.80;99.90
38726;DHT22;24474;48.906;8.808;2024-02-26T04:25:56;6.80;99.90
38726;DHT22;24474;48.906;8.808;2024-02-26T04:28:22;6.80;99.90
38726;DHT22;24474;48.906;8.808;2024-02-26T04:30:48;6.80;99.90
38726;DHT22;24474;48.906;8.808;2024-02-26T04:33:14;6.80;99.90
38726;DHT22;24474;48.906;8.808;2024-02-26T04:35:39;6.80;99.90
38726;DHT22;24474;48.906;8.808;2024-02-26T04:38:05;6.80;99.90
38726;DHT22;24474;48.906;8.808;2024-02-26T04:40:31;6.80;99.90
38726;DHT22;24474;48.906;8.808;2024-02-26T04:42:56;6.80;99.90
38726;DHT22;24474;48.906;8.808;2024-02-26T04:45:23;6.70;99.90
38726;DHT22;24474;48.906;8.808;2024-02-26T04:47:48;6.70;99.90
38726;DHT22;24474;48.906;8.808;2024-02-26T04:50:14;6.70;99.90
38726;DHT22;24474;48.906;8.808;2024-02-26T04:52:39;6.70;99.90
38726;DHT22;24474;48.906;8.808;2024-02-26T04:55:06;6.70;99.90
38726;DHT22;24474;48.906;8.808;2024-02-26T04:57:32;6.70;99.90
38726;DHT22;24474;48.906;8.808;2024-02-26T04:59:57;6.70;99.90
38726;DHT22;24474;48.906;8.808;2024-02-26T05:02:23;6.70;99.90
38726;DHT22;24474;48.906;8.808;2024-02-26T05:04:51;6.70;99.90
38726;DHT22;24474;48.906;8.808;2024-02-26T05:07:17;6.70;99.90
38726;DHT22;24474;48.906;8.808;2024-02-26T05:09:43;6.70;99.90
38726;DHT22;24474;48.906;8.808;2024-02-26T05:12:09;6.80;99.90
38726;DHT22;24474;48.906;8.808;2024-02-26T05:14:35;6.80;99.90
38726;DHT22;24474;48.906;8.808;2024-02-26T05:17:00;6.80;99.90
38726;DHT22;24474;48.906;8.808;2024-02-26T05:19:26;6.80;99.90
38726;DHT22;24474;48.906;8.808;2024-02-26T05:21:52;6.80;99.90
38726;DHT22;24474;48.906;8.808;2024-02-26T05:24:18;6.70;99.90
38726;DHT22;24474;48.906;8.808;2024-02-26T05:26:44;6.70;99.90
38726;DHT22;24474;48.906;8.808;2024-02-26T05:29:13;6.70;99.90
38726;DHT22;24474;48.906;8.808;2024-02-26T05:31:38;6.70;99.90
38726;DHT22;24474;48.906;8.808;2024-02-26T05:34:05;6.70;99.90
38726;DHT22;24474;48.906;8.808;2024-02-26T05:36:30;6.80;99.90
38726;DHT22;24474;48.906;8.808;2024-02-26T05:38:59;6.70;99.90
38726;DHT22;24474;48.906;8.808;2024-02-26T05:41:25;6.80;99.90
38726;DHT22;24474;48.906;8.808;2024-02-26T05:43:52;6.70;99.90
38726;DHT22;24474;48.906;8.808;2024-02-26T05:46:19;6.70;99.90
38726;DHT22;24474;48.906;8.808;2024-02-26T05:48:46;6.70;99.90
38726;DHT22;24474;48.906;8.808;2024-02-26T05:51:12;6.70;99.90
38726;DHT22;24474;48.906;8.808;2024-02-26T05:53:38;6.70;99.90
38726;DHT22;24474;48.906;8.808;2024-02-26T05:56:04;6.70;99.90
38726;DHT22;24474;48.906;8.808;2024-02-26T05:58:29;6.70;99.90
38726;DHT22;24474;48.906;8.808;2024-02-26T06:00:55;6.70;99.90
38726;DHT22;24474;48.906;8.808;2024-02-26T06:03:20;6.70;99.90
38726;DHT22;24474;48.906;8.808;2024-02-26T06:05:46;6.70;99.90
38726;DHT22;24474;48.906;8.808;2024-02-26T06:08:11;6.70;99.90
38726;DHT22;24474;48.906;8.808;2024-02-26T06:10:37;6.70;99.90
38726;DHT22;24474;48.906;8.808;2024-02-26T06:13:04;6.70;99.90
38726;DHT22;24474;48.906;8.808;2024-02-26T06:15:30;6.70;99.90
38726;DHT22;24474;48.906;8.808;2024-02-26T06:17:55;6.70;99.90
38726;DHT22;24474;48.906;8.808;2024-02-26T06:20:21;6.70;99.90
38726;DHT22;24474;48.906;8.808;2024-02-26T06:22:47;6.70;99.90
38726;DHT22;24474;48.906;8.808;2024-02-26T06:25:13;6.80;99.90
38726;DHT22;24474;48.906;8.808;2024-02-26T06:27:39;6.80;99.90
38726;DHT22;24474;48.906;8.808;2024-02-26T06:30:05;6.80;99.90
38726;DHT22;24474;48.906;8.808;2024-02-26T06:32:31;6.80;99.90
38726;DHT22;24474;48.906;8.808;2024-02-26T06:34:58;6.80;99.90
38726;DHT22;24474;48.906;8.808;2024-02-26T06:37:23;6.80;99.90
38726;DHT22;24474;48.906;8.808;2024-02-26T06:39:49;6.80;99.90
38726;DHT22;24474;48.906;8.808;2024-02-26T06:42:17;6.80;99.90
38726;DHT22;24474;48.906;8.808;2024-02-26T06:44:44;6.90;99.90
38726;DHT22;24474;48.906;8.808;2024-02-26T06:47:09;6.90;99.90
38726;DHT22;24474;48.906;8.808;2024-02-26T06:49:35;6.90;99.90
38726;DHT22;24474;48.906;8.808;2024-02-26T06:52:02;6.80;99.90
38726;DHT22;24474;48.906;8.808;2024-02-26T06:54:28;6.90;99.90
38726;DHT22;24474;48.906;8.808;2024-02-26T06:56:54;6.90;99.90
38726;DHT22;24474;48.906;8.808;2024-02-26T06:59:19;7.00;99.90
38726;DHT22;24474;48.906;8.808;2024-02-26T07:01:45;7.00;99.90
38726;DHT22;24474;48.906;8.808;2024-02-26T07:04:11;7.00;99.90
38726;DHT22;24474;48.906;8.808;2024-02-26T07:06:37;7.00;99.90
38726;DHT22;24474;48.906;8.808;2024-02-26T07:09:07;7.00;99.90
38726;DHT22;24474;48.906;8.808;2024-02-26T07:11:32;7.00;99.90
38726;DHT22;24474;48.906;8.808;2024-02-26T07:13:59;7.00;99.90
38726;DHT22;24474;48.906;8.808;2024-02-26T07:16:26;7.00;99.90
38726;DHT22;24474;48.906;8.808;2024-02-26T07:18:52;7.00;99.90
38726;DHT22;24474;48.906;8.808;2024-02-26T07:21:18;7.00;99.90
38726;DHT22;24474;48.906;8.808;2024-02-26T07:23:43;7.00;99.90
38726;DHT22;24474;48.906;8.808;2024-02-26T07:26:09;7.00;99.90
38726;DHT22;24474;48.906;8.808;2024-02-26T07:28:37;7.10;99.90
38726;DHT22;24474;48.906;8.808;2024-02-26T07:31:03;7.10;99.90
38726;DHT22;24474;48.906;8.808;2024-02-26T07:33:29;7.10;99.90
38726;DHT22;24474;48.906;8.808;2024-02-26T07:35:54;7.10;99.90
38726;DHT22;24474;48.906;8.808;2024-02-26T07:38:20;7.10;99.90
38726;DHT22;24474;48.906;8.808;2024-02-26T07:40:45;7.20;99.90
38726;DHT22;24474;48.906;8.808;2024-02-26T07:43:12;7.20;99.90
38726;DHT22;24474;48.906;8.808;2024-02-26T07:45:38;7.20;99.90
38726;DHT22;24474;48.906;8.808;2024-02-26T07:48:04;7.20;99.90
38726;DHT22;24474;48.906;8.808;2024-02-26T07:50:31;7.20;99.90
38726;DHT22;24474;48.906;8.808;2024-02-26T07:52:59;7.20;99.90
38726;DHT22;24474;48.906;8.808;2024-02-26T07:55:24;7.20;99.90
38726;DHT22;24474;48.906;8.808;2024-02-26T07:57:50;7.20;99.90
38726;DHT22;24474;48.906;8.808;2024-02-26T08:00:16;7.20;99.90
38726;DHT22;24474;48.906;8.808;2024-02-26T08:02:43;7.20;99.90
38726;DHT22;24474;48.906;8.808;2024-02-26T08:05:11;7.20;99.90
38726;DHT22;24474;48.906;8.808;2024-02-26T08:07:37;7.20;99.90
38726;DHT22;24474;48.906;8.808;2024-02-26T08:10:04;7.20;99.90
38726;DHT22;24474;48.906;8.808;2024-02-26T08:12:31;7.20;99.90
38726;DHT22;24474;48.906;8.808;2024-02-26T08:15:02;7.30;99.90
38726;DHT22;24474;48.906;8.808;2024-02-26T08:17:28;7.30;99.90
38726;DHT22;24474;48.906;8.808;2024-02-26T08:19:54;7.30;99.90
38726;DHT22;24474;48.906;8.808;2024-02-26T08:22:19;7.40;99.90
38726;DHT22;24474;48.906;8.808;2024-02-26T08:24:46;7.40;99.90
38726;DHT22;24474;48.906;8.808;2024-02-26T08:27:13;7.40;99.90
38726;DHT22;24474;48.906;8.808;2024-02-26T08:29:39;7.40;99.90
38726;DHT22;24474;48.906;8.808;2024-02-26T08:32:05;7.40;99.90
38726;DHT22;24474;48.906;8.808;2024-02-26T08:34:33;7.50;99.90
38726;DHT22;24474;48.906;8.808;2024-02-26T08:37:01;7.50;99.90
38726;DHT22;24474;48.906;8.808;2024-02-26T08:39:29;7.50;99.90
38726;DHT22;24474;48.906;8.808;2024-02-26T08:42:00;7.50;99.90
38726;DHT22;24474;48.906;8.808;2024-02-26T08:44:26;7.60;99.90
38726;DHT22;24474;48.906;8.808;2024-02-26T08:46:53;7.60;99.90
38726;DHT22;24474;48.906;8.808;2024-02-26T08:49:18;7.60;99.90
38726;DHT22;24474;48.906;8.808;2024-02-26T08:51:45;7.60;99.90
38726;DHT22;24474;48.906;8.808;2024-02-26T08:54:12;7.60;99.90
38726;DHT22;24474;48.906;8.808;2024-02-26T08:56:37;7.70;99.90
38726;DHT22;24474;48.906;8.808;2024-02-26T08:59:05;7.70;99.90
38726;DHT22;24474;48.906;8.808;2024-02-26T09:01:32;7.70;99.90
38726;DHT22;24474;48.906;8.808;2024-02-26T09:03:59;7.80;99.90
38726;DHT22;24474;48.906;8.808;2024-02-26T09:06:28;7.80;99.90
38726;DHT22;24474;48.906;8.808;2024-02-26T09:08:53;7.90;99.90
38726;DHT22;24474;48.906;8.808;2024-02-26T09:11:21;7.90;99.90
38726;DHT22;24474;48.906;8.808;2024-02-26T09:13:48;7.90;99.90
38726;DHT22;24474;48.906;8.808;2024-02-26T09:16:20;7.90;99.90
38726;DHT22;24474;48.906;8.808;2024-02-26T09:18:48;7.90;99.90
38726;DHT22;24474;48.906;8.808;2024-02-26T09:21:23;7.90;99.90
38726;DHT22;24474;48.906;8.808;2024-02-26T09:23:51;7.90;99.90
38726;DHT22;24474;48.906;8.808;2024-02-26T09:26:16;7.90;99.90
38726;DHT22;24474;48.906;8.808;2024-02-26T09:28:44;8.00;99.90
38726;DHT22;24474;48.906;8.808;2024-02-26T09:31:12;8.00;99.90
38726;DHT22;24474;48.906;8.808;2024-02-26T09:33:37;8.00;99.90
38726;DHT22;24474;48.906;8.808;2024-02-26T09:36:04;8.10;99.90
38726;DHT22;24474;48.906;8.808;2024-02-26T09:38:32;8.10;99.90
38726;DHT22;24474;48.906;8.808;2024-02-26T09:41:03;8.10;99.90
38726;DHT22;24474;48.906;8.808;2024-02-26T09:43:40;8.10;99.90
38726;DHT22;24474;48.906;8.808;2024-02-26T09:46:12;8.20;99.90
38726;DHT22;24474;48.906;8.808;2024-02-26T09:48:43;8.20;99.90
38726;DHT22;24474;48.906;8.808;2024-02-26T09:51:12;8.20;99.90
38726;DHT22;24474;48.906;8.808;2024-02-26T09:53:40;8.20;99.90
38726;DHT22;24474;48.906;8.808;2024-02-26T09:56:08;8.20;99.90
38726;DHT22;24474;48.906;8.808;2024-02-26T09:58:35;8.30;99.90
38726;DHT22;24474;48.906;8.808;2024-02-26T10:01:02;8.30;99.90
38726;DHT22;24474;48.906;8.808;2024-02-26T10:03:34;8.30;99.90
38726;DHT22;24474;48.906;8.808;2024-02-26T10:06:01;8.30;99.90
38726;DHT22;24474;48.906;8.808;2024-02-26T10:08:29;8.40;99.90
38726;DHT22;24474;48.906;8.808;2024-02-26T10:10:56;8.40;99.90
38726;DHT22;24474;48.906;8.808;2024-02-26T10:13:21;8.40;99.90
38726;DHT22;24474;48.906;8.808;2024-02-26T10:15:49;8.40;99.90
38726;DHT22;24474;48.906;8.808;2024-02-26T10:18:15;8.50;99.90
38726;DHT22;24474;48.906;8.808;2024-02-26T10:21:00;8.60;99.90
38726;DHT22;24474;48.906;8.808;2024-02-26T10:23:29;8.60;99.90
38726;DHT22;24474;48.906;8.808;2024-02-26T10:25:55;8.60;99.90
38726;DHT22;24474;48.906;8.808;2024-02-26T10:28:21;8.60;99.90
38726;DHT22;24474;48.906;8.808;2024-02-26T10:30:47;8.70;99.90
38726;DHT22;24474;48.906;8.808;2024-02-26T10:33:13;8.70;99.90
38726;DHT22;24474;48.906;8.808;2024-02-26T10:35:40;8.80;99.90
38726;DHT22;24474;48.906;8.808;2024-02-26T10:38:12;8.80;99.90
38726;DHT22;24474;48.906;8.808;2024-02-26T10:40:39;8.80;99.90
38726;DHT22;24474;48.906;8.808;2024-02-26T10:43:05;8.80;99.90
38726;DHT22;24474;48.906;8.808;2024-02-26T10:45:32;8.90;99.90
38726;DHT22;24474;48.906;8.808;2024-02-26T10:47:57;9.00;99.90
38726;DHT22;24474;48.906;8.808;2024-02-26T10:50:24;9.00;99.90
38726;DHT22;24474;48.906;8.808;2024-02-26T10:52:50;9.00;99.90
38726;DHT22;24474;48.906;8.808;2024-02-26T10:55:16;9.00;99.90
38726;DHT22;24474;48.906;8.808;2024-02-26T10:57:45;9.10;99.90
38726;DHT22;24474;48.906;8.808;2024-02-26T11:00:14;9.10;99.90
38726;DHT22;24474;48.906;8.808;2024-02-26T11:02:41;9.10;99.90
38726;DHT22;24474;48.906;8.808;2024-02-26T11:05:07;9.10;99.90
38726;DHT22;24474;48.906;8.808;2024-02-26T11:07:36;9.10;99.90
38726;DHT22;24474;48.906;8.808;2024-02-26T11:10:04;9.20;99.90
38726;DHT22;24474;48.906;8.808;2024-02-26T11:12:35;9.30;99.90
38726;DHT22;24474;48.906;8.808;2024-02-26T11:15:15;9.30;99.90
38726;DHT22;24474;48.906;8.808;2024-02-26T11:17:42;9.40;99.90
38726;DHT22;24474;48.906;8.808;2024-02-26T11:20:10;9.40;99.90
38726;DHT22;24474;48.906;8.808;2024-02-26T11:22:38;9.40;99.90
38726;DHT22;24474;48.906;8.808;2024-02-26T11:25:04;9.50;99.90
38726;DHT22;24474;48.906;8.808;2024-02-26T11:27:36;9.50;99.90
38726;DHT22;24474;48.906;8.808;2024-02-26T11:30:03;9.40;99.90
38726;DHT22;24474;48.906;8.808;2024-02-26T11:32:31;9.50;99.90
38726;DHT22;24474;48.906;8.808;2024-02-26T11:34:58;9.50;99.90
38726;DHT22;24474;48.906;8.808;2024-02-26T11:37:24;9.50;99.90
38726;DHT22;24474;48.906;8.808;2024-02-26T11:39:55;9.50;99.90
38726;DHT22;24474;48.906;8.808;2024-02-26T11:42:24;9.60;99.90
38726;DHT22;24474;48.906;8.808;2024-02-26T11:44:54;9.70;99.90
38726;DHT22;24474;48.906;8.808;2024-02-26T11:47:24;9.80;99.90
38726;DHT22;24474;48.906;8.808;2024-02-26T11:49:50;9.80;99.90
38726;DHT22;24474;48.906;8.808;2024-02-26T11:52:16;9.90;99.90
38726;DHT22;24474;48.906;8.808;2024-02-26T11:57:30;10.00;99.90
38726;DHT22;24474;48.906;8.808;2024-02-26T12:02:51;10.10;99.90
38726;DHT22;24474;48.906;8.808;2024-02-26T12:05:23;10.10;99.90
38726;DHT22;24474;48.906;8.808;2024-02-26T12:08:00;10.10;99.90
38726;DHT22;24474;48.906;8.808;2024-02-26T12:10:37;10.20;99.90
38726;DHT22;24474;48.906;8.808;2024-02-26T12:13:16;10.30;99.90
38726;DHT22;24474;48.906;8.808;2024-02-26T12:15:43;10.30;99.90
38726;DHT22;24474;48.906;8.808;2024-02-26T12:18:15;10.30;99.90
38726;DHT22;24474;48.906;8.808;2024-02-26T12:20:41;10.30;99.90
38726;DHT22;24474;48.906;8.808;2024-02-26T12:23:19;10.40;99.90
38726;DHT22;24474;48.906;8.808;2024-02-26T12:25:49;10.50;99.90
38726;DHT22;24474;48.906;8.808;2024-02-26T12:28:15;10.60;99.90
38726;DHT22;24474;48.906;8.808;2024-02-26T12:30:42;10.60;99.90
38726;DHT22;24474;48.906;8.808;2024-02-26T12:33:08;10.70;99.90
38726;DHT22;24474;48.906;8.808;2024-02-26T12:35:35;10.60;99.90
38726;DHT22;24474;48.906;8.808;2024-02-26T12:38:02;10.70;99.90
38726;DHT22;24474;48.906;8.808;2024-02-26T12:40:31;10.60;99.90
38726;DHT22;24474;48.906;8.808;2024-02-26T12:42:57;10.60;99.90
38726;DHT22;24474;48.906;8.808;2024-02-26T12:45:25;10.70;99.90
38726;DHT22;24474;48.906;8.808;2024-02-26T12:47:52;10.80;99.90
38726;DHT22;24474;48.906;8.808;2024-02-26T12:50:31;10.90;99.90
38726;DHT22;24474;48.906;8.808;2024-02-26T12:52:59;10.90;99.90
38726;DHT22;24474;48.906;8.808;2024-02-26T12:55:26;11.00;99.90
38726;DHT22;24474;48.906;8.808;2024-02-26T12:57:52;11.00;99.90
38726;DHT22;24474;48.906;8.808;2024-02-26T13:00:23;11.10;99.90
38726;DHT22;24474;48.906;8.808;2024-02-26T13:02:51;11.10;99.90
38726;DHT22;24474;48.906;8.808;2024-02-26T13:05:19;11.20;99.90
38726;DHT22;24474;48.906;8.808;2024-02-26T13:07:46;11.20;99.90
38726;DHT22;24474;48.906;8.808;2024-02-26T13:10:12;11.20;99.90
38726;DHT22;24474;48.906;8.808;2024-02-26T13:12:48;11.20;99.90
38726;DHT22;24474;48.906;8.808;2024-02-26T13:15:20;11.30;99.90
38726;DHT22;24474;48.906;8.808;2024-02-26T13:17:48;11.30;99.90
38726;DHT22;24474;48.906;8.808;2024-02-26T13:20:28;11.30;99.90
38726;DHT22;24474;48.906;8.808;2024-02-26T13:23:05;11.30;99.90
38726;DHT22;24474;48.906;8.808;2024-02-26T13:25:33;11.40;99.90
38726;DHT22;24474;48.906;8.808;2024-02-26T13:28:08;11.40;99.90
38726;DHT22;24474;48.906;8.808;2024-02-26T13:30:36;11.40;99.90
38726;DHT22;24474;48.906;8.808;2024-02-26T13:33:13;11.50;99.90
38726;DHT22;24474;48.906;8.808;2024-02-26T13:35:39;11.50;99.90
38726;DHT22;24474;48.906;8.808;2024-02-26T13:38:05;11.50;99.90
38726;DHT22;24474;48.906;8.808;2024-02-26T13:40:35;11.50;99.90
38726;DHT22;24474;48.906;8.808;2024-02-26T13:43:05;11.50;99.90
38726;DHT22;24474;48.906;8.808;2024-02-26T13:45:34;11.50;99.90
38726;DHT22;24474;48.906;8.808;2024-02-26T13:48:19;11.60;99.90
38726;DHT22;24474;48.906;8.808;2024-02-26T13:50:44;11.60;99.90
38726;DHT22;24474;48.906;8.808;2024-02-26T13:53:11;11.60;99.90
38726;DHT22;24474;48.906;8.808;2024-02-26T13:55:37;11.60;99.90
38726;DHT22;24474;48.906;8.808;2024-02-26T13:58:03;11.60;99.90
38726;DHT22;24474;48.906;8.808;2024-02-26T14:00:30;11.70;99.90
38726;DHT22;24474;48.906;8.808;2024-02-26T14:02:59;11.80;99.90
38726;DHT22;24474;48.906;8.808;2024-02-26T14:05:25;11.80;99.90
38726;DHT22;24474;48.906;8.808;2024-02-26T14:07:51;11.80;99.90
38726;DHT22;24474;48.906;8.808;2024-02-26T14:10:17;11.90;99.90
38726;DHT22;24474;48.906;8.808;2024-02-26T14:12:43;11.90;99.90
38726;DHT22;24474;48.906;8.808;2024-02-26T14:15:10;12.00;99.90
38726;DHT22;24474;48.906;8.808;2024-02-26T14:17:35;12.00;99.90
38726;DHT22;24474;48.906;8.808;2024-02-26T14:20:13;12.00;99.90
38726;DHT22;24474;48.906;8.808;2024-02-26T14:22:42;12.00;99.90
38726;DHT22;24474;48.906;8.808;2024-02-26T14:25:08;12.00;99.90
38726;DHT22;24474;48.906;8.808;2024-02-26T14:27:37;12.10;99.90
38726;DHT22;24474;48.906;8.808;2024-02-26T14:30:03;12.10;99.90
38726;DHT22;24474;48.906;8.808;2024-02-26T14:32:29;12.10;99.90
38726;DHT22;24474;48.906;8.808;2024-02-26T14:35:00;12.10;99.90
38726;DHT22;24474;48.906;8.808;2024-02-26T14:37:26;12.10;99.90
38726;DHT22;24474;48.906;8.808;2024-02-26T14:39:51;12.10;99.90
38726;DHT22;24474;48.906;8.808;2024-02-26T14:42:18;12.00;99.90
38726;DHT22;24474;48.906;8.808;2024-02-26T14:44:44;12.00;99.90
38726;DHT22;24474;48.906;8.808;2024-02-26T14:47:10;12.10;99.90
38726;DHT22;24474;48.906;8.808;2024-02-26T14:49:35;12.10;99.90
38726;DHT22;24474;48.906;8.808;2024-02-26T14:52:01;12.10;99.90
38726;DHT22;24474;48.906;8.808;2024-02-26T14:54:28;12.10;99.90
38726;DHT22;24474;48.906;8.808;2024-02-26T14:56:58;12.00;99.90
38726;DHT22;24474;48.906;8.808;2024-02-26T14:59:23;12.10;99.90
38726;DHT22;24474;48.906;8.808;2024-02-26T15:01:49;12.00;99.90
38726;DHT22;24474;48.906;8.808;2024-02-26T15:04:15;12.10;99.90
38726;DHT22;24474;48.906;8.808;2024-02-26T15:06:40;12.00;99.90
38726;DHT22;24474;48.906;8.808;2024-02-26T15:09:06;12.00;99.90
38726;DHT22;24474;48.906;8.808;2024-02-26T15:11:32;12.00;99.90
38726;DHT22;24474;48.906;8.808;2024-02-26T15:13:57;12.10;99.90
38726;DHT22;24474;48.906;8.808;2024-02-26T15:16:23;12.10;99.90
38726;DHT22;24474;48.906;8.808;2024-02-26T15:18:49;12.00;99.90
38726;DHT22;24474;48.906;8.808;2024-02-26T15:21:14;12.10;99.90
38726;DHT22;24474;48.906;8.808;2024-02-26T15:23:42;12.00;99.90
38726;DHT22;24474;48.906;8.808;2024-02-26T15:26:10;12.00;99.90
38726;DHT22;24474;48.906;8.808;2024-02-26T15:28:36;12.00;99.90
38726;DHT22;24474;48.906;8.808;2024-02-26T15:31:01;12.00;99.90
38726;DHT22;24474;48.906;8.808;2024-02-26T15:33:27;12.00;99.90
38726;DHT22;24474;48.906;8.808;2024-02-26T15:35:54;12.00;99.90
38726;DHT22;24474;48.906;8.808;2024-02-26T15:38:19;12.00;99.90
38726;DHT22;24474;48.906;8.808;2024-02-26T15:40:45;12.00;99.90
38726;DHT22;24474;48.906;8.808;2024-02-26T15:43:12;12.00;99.90
38726;DHT22;24474;48.906;8.808;2024-02-26T15:45:38;12.00;99.90